sensor_id;sensor_type;location;lat;lon;timestamp;P1;durP1;ratioP1;P2;durP2;ratioP2
7941;SDS011;4016;50.758;7.150;2022-10-31T00:03:00;10.90;;;5.43;;
7941;SDS011;4016;50.758;7.150;2022-10-31T00:08:00;6.33;;;4.60;;
7941;SDS011;4016;50.758;7.150;2022-10-31T00:13:00;7.50;;;4.90;;
7941;SDS011;4016;50.758;7.150;2022-10-31T00:18:01;10.20;;;5.40;;
7941;SDS011;4016;50.758;7.150;2022-10-31T00:23:03;7.00;;;5.00;;
7941;SDS011;4016;50.758;7.150;2022-10-31T00:28:04;6.20;;;4.60;;
7941;SDS011;4016;50.758;7.150;2022-10-31T00:33:06;8.23;;;5.40;;
7941;SDS011;4016;50.758;7.150;2022-10-31T00:38:06;9.07;;;5.20;;
7941;SDS011;4016;50.758;7.150;2022-10-31T00:43:06;7.17;;;5.17;;
7941;SDS011;4016;50.758;7.150;2022-10-31T00:48:07;8.67;;;5.00;;
7941;SDS011;4016;50.758;7.150;2022-10-31T00:53:07;6.77;;;5.33;;
7941;SDS011;4016;50.758;7.150;2022-10-31T00:58:08;6.07;;;4.83;;
7941;SDS011;4016;50.758;7.150;2022-10-31T01:03:08;5.53;;;4.90;;
7941;SDS011;4016;50.758;7.150;2022-10-31T01:08:09;8.07;;;4.23;;
7941;SDS011;4016;50.758;7.150;2022-10-31T01:13:09;8.23;;;5.20;;
7941;SDS011;4016;50.758;7.150;2022-10-31T01:18:10;8.83;;;4.63;;
7941;SDS011;4016;50.758;7.150;2022-10-31T01:23:10;5.50;;;4.80;;
7941;SDS011;4016;50.758;7.150;2022-10-31T01:28:10;6.00;;;4.43;;
7941;SDS011;4016;50.758;7.150;2022-10-31T01:33:11;5.93;;;5.10;;
7941;SDS011;4016;50.758;7.150;2022-10-31T01:38:11;6.67;;;5.10;;
7941;SDS011;4016;50.758;7.150;2022-10-31T01:43:14;4.90;;;4.30;;
7941;SDS011;4016;50.758;7.150;2022-10-31T01:48:15;6.90;;;5.07;;
7941;SDS011;4016;50.758;7.150;2022-10-31T01:53:19;4.90;;;4.13;;
7941;SDS011;4016;50.758;7.150;2022-10-31T01:58:22;6.40;;;4.70;;
7941;SDS011;4016;50.758;7.150;2022-10-31T02:03:25;6.13;;;4.33;;
7941;SDS011;4016;50.758;7.150;2022-10-31T02:08:27;7.07;;;4.83;;
7941;SDS011;4016;50.758;7.150;2022-10-31T02:13:29;5.30;;;4.70;;
7941;SDS011;4016;50.758;7.150;2022-10-31T02:18:29;5.83;;;4.33;;
7941;SDS011;4016;50.758;7.150;2022-10-31T02:33:43;7.50;;;4.53;;
7941;SDS011;4016;50.758;7.150;2022-10-31T02:49:11;8.00;;;4.80;;
7941;SDS011;4016;50.758;7.150;2022-10-31T02:54:35;7.40;;;4.30;;
7941;SDS011;4016;50.758;7.150;2022-10-31T02:59:35;7.67;;;4.47;;
7941;SDS011;4016;50.758;7.150;2022-10-31T03:04:42;4.60;;;3.90;;
7941;SDS011;4016;50.758;7.150;2022-10-31T03:09:51;6.40;;;3.90;;
7941;SDS011;4016;50.758;7.150;2022-10-31T03:15:06;4.33;;;3.90;;
7941;SDS011;4016;50.758;7.150;2022-10-31T03:20:23;6.30;;;4.10;;
7941;SDS011;4016;50.758;7.150;2022-10-31T03:25:27;6.10;;;4.20;;
7941;SDS011;4016;50.758;7.150;2022-10-31T03:30:30;4.83;;;3.73;;
7941;SDS011;4016;50.758;7.150;2022-10-31T03:35:35;6.10;;;4.60;;
7941;SDS011;4016;50.758;7.150;2022-10-31T03:40:37;5.67;;;4.17;;
7941;SDS011;4016;50.758;7.150;2022-10-31T03:45:41;5.07;;;3.87;;
7941;SDS011;4016;50.758;7.150;2022-10-31T03:56:02;5.27;;;4.43;;
7941;SDS011;4016;50.758;7.150;2022-10-31T04:01:09;4.00;;;3.60;;
7941;SDS011;4016;50.758;7.150;2022-10-31T04:06:16;5.07;;;4.57;;
7941;SDS011;4016;50.758;7.150;2022-10-31T04:11:19;7.73;;;3.70;;
7941;SDS011;4016;50.758;7.150;2022-10-31T04:16:23;5.23;;;4.20;;
7941;SDS011;4016;50.758;7.150;2022-10-31T04:21:28;5.87;;;4.00;;
7941;SDS011;4016;50.758;7.150;2022-10-31T04:26:29;6.37;;;4.30;;
7941;SDS011;4016;50.758;7.150;2022-10-31T04:31:29;4.93;;;3.70;;
7941;SDS011;4016;50.758;7.150;2022-10-31T04:36:30;5.40;;;4.50;;
7941;SDS011;4016;50.758;7.150;2022-10-31T04:41:30;6.10;;;4.13;;
7941;SDS011;4016;50.758;7.150;2022-10-31T04:46:30;7.53;;;4.17;;
7941;SDS011;4016;50.758;7.150;2022-10-31T04:51:31;6.27;;;4.00;;
7941;SDS011;4016;50.758;7.150;2022-10-31T04:56:31;10.83;;;4.33;;
7941;SDS011;4016;50.758;7.150;2022-10-31T05:01:31;7.13;;;4.63;;
7941;SDS011;4016;50.758;7.150;2022-10-31T05:06:32;7.03;;;4.37;;
7941;SDS011;4016;50.758;7.150;2022-10-31T05:11:32;7.20;;;4.50;;
7941;SDS011;4016;50.758;7.150;2022-10-31T05:16:33;4.73;;;4.13;;
7941;SDS011;4016;50.758;7.150;2022-10-31T05:21:33;4.60;;;4.10;;
7941;SDS011;4016;50.758;7.150;2022-10-31T05:26:33;6.13;;;4.60;;
7941;SDS011;4016;50.758;7.150;2022-10-31T05:31:34;4.77;;;4.27;;
7941;SDS011;4016;50.758;7.150;2022-10-31T05:36:34;5.73;;;4.13;;
7941;SDS011;4016;50.758;7.150;2022-10-31T05:41:34;5.53;;;4.20;;
7941;SDS011;4016;50.758;7.150;2022-10-31T05:46:35;6.53;;;4.67;;
7941;SDS011;4016;50.758;7.150;2022-10-31T05:51:35;4.50;;;3.77;;
7941;SDS011;4016;50.758;7.150;2022-10-31T05:56:35;5.50;;;4.17;;
7941;SDS011;4016;50.758;7.150;2022-10-31T06:01:36;6.93;;;4.40;;
7941;SDS011;4016;50.758;7.150;2022-10-31T06:06:36;5.13;;;3.70;;
7941;SDS011;4016;50.758;7.150;2022-10-31T06:11:37;4.30;;;3.63;;
7941;SDS011;4016;50.758;7.150;2022-10-31T06:16:37;4.90;;;4.00;;
7941;SDS011;4016;50.758;7.150;2022-10-31T06:21:37;4.30;;;3.53;;
7941;SDS011;4016;50.758;7.150;2022-10-31T06:26:38;7.57;;;4.07;;
7941;SDS011;4016;50.758;7.150;2022-10-31T06:31:38;6.43;;;4.20;;
7941;SDS011;4016;50.758;7.150;2022-10-31T06:36:38;5.60;;;4.13;;
7941;SDS011;4016;50.758;7.150;2022-10-31T06:41:39;5.10;;;4.13;;
7941;SDS011;4016;50.758;7.150;2022-10-31T06:46:39;6.17;;;4.80;;
7941;SDS011;4016;50.758;7.150;2022-10-31T06:51:39;5.83;;;4.60;;
7941;SDS011;4016;50.758;7.150;2022-10-31T06:56:40;6.37;;;4.80;;
7941;SDS011;4016;50.758;7.150;2022-10-31T07:01:40;7.57;;;4.90;;
7941;SDS011;4016;50.758;7.150;2022-10-31T07:06:40;6.87;;;5.20;;
7941;SDS011;4016;50.758;7.150;2022-10-31T07:11:41;5.43;;;4.63;;
7941;SDS011;4016;50.758;7.150;2022-10-31T07:16:41;6.03;;;4.63;;
7941;SDS011;4016;50.758;7.150;2022-10-31T07:21:42;9.70;;;5.37;;
7941;SDS011;4016;50.758;7.150;2022-10-31T07:26:42;6.57;;;4.90;;
7941;SDS011;4016;50.758;7.150;2022-10-31T07:31:42;6.70;;;5.37;;
7941;SDS011;4016;50.758;7.150;2022-10-31T07:36:45;5.47;;;4.70;;
7941;SDS011;4016;50.758;7.150;2022-10-31T07:41:46;7.87;;;5.33;;
7941;SDS011;4016;50.758;7.150;2022-10-31T07:46:46;10.27;;;5.90;;
7941;SDS011;4016;50.758;7.150;2022-10-31T07:51:46;7.43;;;5.23;;
7941;SDS011;4016;50.758;7.150;2022-10-31T07:56:47;7.47;;;5.03;;
7941;SDS011;4016;50.758;7.150;2022-10-31T08:01:47;6.97;;;5.60;;
7941;SDS011;4016;50.758;7.150;2022-10-31T08:06:47;7.63;;;5.80;;
7941;SDS011;4016;50.758;7.150;2022-10-31T08:11:48;6.87;;;5.97;;
7941;SDS011;4016;50.758;7.150;2022-10-31T08:16:48;7.77;;;5.50;;
7941;SDS011;4016;50.758;7.150;2022-10-31T08:21:52;7.70;;;5.40;;
7941;SDS011;4016;50.758;7.150;2022-10-31T08:26:54;6.67;;;5.53;;
7941;SDS011;4016;50.758;7.150;2022-10-31T08:31:57;7.07;;;5.63;;
7941;SDS011;4016;50.758;7.150;2022-10-31T08:36:57;7.47;;;5.47;;
7941;SDS011;4016;50.758;7.150;2022-10-31T08:41:58;8.20;;;5.77;;
7941;SDS011;4016;50.758;7.150;2022-10-31T08:46:58;9.03;;;5.73;;
7941;SDS011;4016;50.758;7.150;2022-10-31T08:51:59;8.23;;;5.60;;
7941;SDS011;4016;50.758;7.150;2022-10-31T08:56:59;8.37;;;6.37;;
7941;SDS011;4016;50.758;7.150;2022-10-31T09:01:59;8.20;;;5.87;;
7941;SDS011;4016;50.758;7.150;2022-10-31T09:07:00;9.70;;;6.10;;
7941;SDS011;4016;50.758;7.150;2022-10-31T09:12:00;8.20;;;6.10;;
7941;SDS011;4016;50.758;7.150;2022-10-31T09:17:00;8.63;;;6.13;;
7941;SDS011;4016;50.758;7.150;2022-10-31T09:22:01;7.43;;;5.63;;
7941;SDS011;4016;50.758;7.150;2022-10-31T09:27:01;9.80;;;6.23;;
7941;SDS011;4016;50.758;7.150;2022-10-31T09:32:01;6.23;;;5.40;;
7941;SDS011;4016;50.758;7.150;2022-10-31T09:37:02;7.93;;;5.50;;
7941;SDS011;4016;50.758;7.150;2022-10-31T09:42:15;9.00;;;6.30;;
7941;SDS011;4016;50.758;7.150;2022-10-31T09:47:51;7.87;;;5.73;;
7941;SDS011;4016;50.758;7.150;2022-10-31T09:53:17;7.27;;;5.63;;
7941;SDS011;4016;50.758;7.150;2022-10-31T09:58:34;7.50;;;5.57;;
7941;SDS011;4016;50.758;7.150;2022-10-31T10:03:45;8.67;;;5.30;;
7941;SDS011;4016;50.758;7.150;2022-10-31T10:08:48;6.00;;;5.40;;
7941;SDS011;4016;50.758;7.150;2022-10-31T10:19:16;7.33;;;5.50;;
7941;SDS011;4016;50.758;7.150;2022-10-31T10:29:45;9.33;;;4.90;;
7941;SDS011;4016;50.758;7.150;2022-10-31T10:34:57;6.70;;;4.87;;
7941;SDS011;4016;50.758;7.150;2022-10-31T10:45:20;9.40;;;5.23;;
7941;SDS011;4016;50.758;7.150;2022-10-31T10:50:41;6.57;;;5.50;;
7941;SDS011;4016;50.758;7.150;2022-10-31T10:56:03;6.43;;;4.90;;
7941;SDS011;4016;50.758;7.150;2022-10-31T11:01:30;10.63;;;5.73;;
7941;SDS011;4016;50.758;7.150;2022-10-31T11:06:31;7.03;;;5.07;;
7941;SDS011;4016;50.758;7.150;2022-10-31T11:11:31;5.10;;;4.53;;
7941;SDS011;4016;50.758;7.150;2022-10-31T11:16:33;6.67;;;5.33;;
7941;SDS011;4016;50.758;7.150;2022-10-31T11:21:36;9.50;;;6.07;;
7941;SDS011;4016;50.758;7.150;2022-10-31T11:26:37;6.67;;;5.87;;
7941;SDS011;4016;50.758;7.150;2022-10-31T11:31:39;8.55;;;6.45;;
7941;SDS011;4016;50.758;7.150;2022-10-31T11:36:42;9.05;;;6.30;;
7941;SDS011;4016;50.758;7.150;2022-10-31T11:41:43;9.25;;;5.43;;
7941;SDS011;4016;50.758;7.150;2022-10-31T11:46:48;7.20;;;5.47;;
7941;SDS011;4016;50.758;7.150;2022-10-31T11:51:54;7.68;;;6.03;;
7941;SDS011;4016;50.758;7.150;2022-10-31T11:56:57;6.72;;;5.72;;
7941;SDS011;4016;50.758;7.150;2022-10-31T12:01:59;7.07;;;5.55;;
7941;SDS011;4016;50.758;7.150;2022-10-31T12:07:00;8.30;;;4.68;;
7941;SDS011;4016;50.758;7.150;2022-10-31T12:12:10;7.47;;;4.88;;
7941;SDS011;4016;50.758;7.150;2022-10-31T12:17:18;6.28;;;4.63;;
7941;SDS011;4016;50.758;7.150;2022-10-31T12:22:34;5.47;;;4.45;;
7941;SDS011;4016;50.758;7.150;2022-10-31T12:38:31;5.43;;;4.15;;
7941;SDS011;4016;50.758;7.150;2022-10-31T12:59:43;4.97;;;4.20;;
7941;SDS011;4016;50.758;7.150;2022-10-31T13:04:57;4.55;;;3.78;;
7941;SDS011;4016;50.758;7.150;2022-10-31T13:10:04;5.97;;;4.10;;
7941;SDS011;4016;50.758;7.150;2022-10-31T13:15:20;5.93;;;4.18;;
7941;SDS011;4016;50.758;7.150;2022-10-31T13:20:25;5.78;;;3.95;;
7941;SDS011;4016;50.758;7.150;2022-10-31T13:25:30;5.00;;;3.97;;
7941;SDS011;4016;50.758;7.150;2022-10-31T13:30:39;4.35;;;3.78;;
7941;SDS011;4016;50.758;7.150;2022-10-31T13:35:43;6.57;;;3.95;;
7941;SDS011;4016;50.758;7.150;2022-10-31T13:46:23;6.13;;;4.05;;
7941;SDS011;4016;50.758;7.150;2022-10-31T13:51:44;5.68;;;4.22;;
7941;SDS011;4016;50.758;7.150;2022-10-31T13:56:47;5.10;;;3.85;;
7941;SDS011;4016;50.758;7.150;2022-10-31T14:06:54;5.22;;;3.70;;
7941;SDS011;4016;50.758;7.150;2022-10-31T14:12:54;6.05;;;3.95;;
7941;SDS011;4016;50.758;7.150;2022-10-31T14:17:45;5.75;;;4.22;;
7941;SDS011;4016;50.758;7.150;2022-10-31T14:22:48;4.22;;;3.83;;
7941;SDS011;4016;50.758;7.150;2022-10-31T14:27:49;5.72;;;3.75;;
7941;SDS011;4016;50.758;7.150;2022-10-31T14:32:52;7.65;;;4.13;;
7941;SDS011;4016;50.758;7.150;2022-10-31T14:54:01;8.43;;;3.72;;
7941;SDS011;4016;50.758;7.150;2022-10-31T14:59:07;4.32;;;3.63;;
7941;SDS011;4016;50.758;7.150;2022-10-31T15:04:17;5.00;;;4.13;;
7941;SDS011;4016;50.758;7.150;2022-10-31T15:09:22;6.43;;;4.25;;
7941;SDS011;4016;50.758;7.150;2022-10-31T15:14:29;5.93;;;3.75;;
7941;SDS011;4016;50.758;7.150;2022-10-31T15:19:30;5.07;;;3.78;;
7941;SDS011;4016;50.758;7.150;2022-10-31T15:24:37;6.70;;;3.53;;
7941;SDS011;4016;50.758;7.150;2022-10-31T15:29:47;5.43;;;3.83;;
7941;SDS011;4016;50.758;7.150;2022-10-31T15:34:55;6.72;;;3.95;;
7941;SDS011;4016;50.758;7.150;2022-10-31T15:40:05;6.57;;;4.35;;
7941;SDS011;4016;50.758;7.150;2022-10-31T15:50:21;5.13;;;3.83;;
7941;SDS011;4016;50.758;7.150;2022-10-31T15:55:33;6.13;;;4.00;;
7941;SDS011;4016;50.758;7.150;2022-10-31T16:00:38;6.05;;;3.80;;
7941;SDS011;4016;50.758;7.150;2022-10-31T16:05:43;6.05;;;3.78;;
7941;SDS011;4016;50.758;7.150;2022-10-31T16:10:51;5.18;;;3.70;;
7941;SDS011;4016;50.758;7.150;2022-10-31T16:16:02;4.72;;;3.90;;
7941;SDS011;4016;50.758;7.150;2022-10-31T16:21:10;5.18;;;3.90;;
7941;SDS011;4016;50.758;7.150;2022-10-31T16:26:14;6.40;;;3.90;;
7941;SDS011;4016;50.758;7.150;2022-10-31T16:31:24;4.78;;;3.60;;
7941;SDS011;4016;50.758;7.150;2022-10-31T16:36:31;5.77;;;4.03;;
7941;SDS011;4016;50.758;7.150;2022-10-31T16:41:37;5.85;;;3.78;;
7941;SDS011;4016;50.758;7.150;2022-10-31T16:46:39;8.13;;;4.40;;
7941;SDS011;4016;50.758;7.150;2022-10-31T16:51:41;4.60;;;3.93;;
7941;SDS011;4016;50.758;7.150;2022-10-31T16:56:42;6.53;;;3.77;;
7941;SDS011;4016;50.758;7.150;2022-10-31T17:01:43;6.17;;;3.70;;
7941;SDS011;4016;50.758;7.150;2022-10-31T17:06:45;5.33;;;4.07;;
7941;SDS011;4016;50.758;7.150;2022-10-31T17:11:49;8.50;;;7.20;;
7941;SDS011;4016;50.758;7.150;2022-10-31T17:16:51;7.13;;;5.17;;
7941;SDS011;4016;50.758;7.150;2022-10-31T17:21:51;4.63;;;4.17;;
7941;SDS011;4016;50.758;7.150;2022-10-31T17:26:51;5.27;;;4.13;;
7941;SDS011;4016;50.758;7.150;2022-10-31T17:31:52;6.30;;;4.70;;
7941;SDS011;4016;50.758;7.150;2022-10-31T17:36:52;6.73;;;5.37;;
7941;SDS011;4016;50.758;7.150;2022-10-31T17:41:52;6.87;;;4.97;;
7941;SDS011;4016;50.758;7.150;2022-10-31T17:46:53;4.83;;;4.33;;
7941;SDS011;4016;50.758;7.150;2022-10-31T17:51:53;7.63;;;4.87;;
7941;SDS011;4016;50.758;7.150;2022-10-31T17:56:53;8.23;;;4.70;;
7941;SDS011;4016;50.758;7.150;2022-10-31T18:01:54;6.97;;;4.40;;
7941;SDS011;4016;50.758;7.150;2022-10-31T18:06:55;5.33;;;4.17;;
7941;SDS011;4016;50.758;7.150;2022-10-31T18:11:55;7.27;;;4.67;;
7941;SDS011;4016;50.758;7.150;2022-10-31T18:16:56;11.90;;;6.77;;
7941;SDS011;4016;50.758;7.150;2022-10-31T18:21:56;8.87;;;5.73;;
7941;SDS011;4016;50.758;7.150;2022-10-31T18:26:57;10.20;;;5.40;;
7941;SDS011;4016;50.758;7.150;2022-10-31T18:31:57;9.23;;;7.10;;
7941;SDS011;4016;50.758;7.150;2022-10-31T18:36:58;7.47;;;5.57;;
7941;SDS011;4016;50.758;7.150;2022-10-31T18:41:58;9.70;;;5.70;;
7941;SDS011;4016;50.758;7.150;2022-10-31T18:46:59;7.63;;;5.60;;
7941;SDS011;4016;50.758;7.150;2022-10-31T18:51:59;8.33;;;5.90;;
7941;SDS011;4016;50.758;7.150;2022-10-31T18:56:59;7.20;;;6.40;;
7941;SDS011;4016;50.758;7.150;2022-10-31T19:02:00;11.83;;;7.20;;
7941;SDS011;4016;50.758;7.150;2022-10-31T19:07:00;13.93;;;9.20;;
7941;SDS011;4016;50.758;7.150;2022-10-31T19:12:01;11.03;;;8.30;;
7941;SDS011;4016;50.758;7.150;2022-10-31T19:17:01;8.43;;;6.90;;
7941;SDS011;4016;50.758;7.150;2022-10-31T19:22:01;11.57;;;8.60;;
7941;SDS011;4016;50.758;7.150;2022-10-31T19:27:02;6.77;;;5.40;;
7941;SDS011;4016;50.758;7.150;2022-10-31T19:32:03;7.83;;;5.20;;
7941;SDS011;4016;50.758;7.150;2022-10-31T19:37:03;7.20;;;4.80;;
7941;SDS011;4016;50.758;7.150;2022-10-31T19:42:04;9.47;;;4.53;;
7941;SDS011;4016;50.758;7.150;2022-10-31T19:47:04;9.70;;;4.27;;
7941;SDS011;4016;50.758;7.150;2022-10-31T19:52:05;6.30;;;4.57;;
7941;SDS011;4016;50.758;7.150;2022-10-31T19:57:05;6.20;;;4.20;;
7941;SDS011;4016;50.758;7.150;2022-10-31T20:02:05;6.50;;;4.37;;
7941;SDS011;4016;50.758;7.150;2022-10-31T20:07:07;4.70;;;3.60;;
7941;SDS011;4016;50.758;7.150;2022-10-31T20:12:07;7.00;;;4.23;;
7941;SDS011;4016;50.758;7.150;2022-10-31T20:17:08;4.83;;;3.93;;
7941;SDS011;4016;50.758;7.150;2022-10-31T20:22:09;6.20;;;3.80;;
7941;SDS011;4016;50.758;7.150;2022-10-31T20:27:09;7.80;;;3.80;;
7941;SDS011;4016;50.758;7.150;2022-10-31T20:32:10;6.70;;;3.73;;
7941;SDS011;4016;50.758;7.150;2022-10-31T20:37:10;4.97;;;4.20;;
7941;SDS011;4016;50.758;7.150;2022-10-31T20:42:10;4.10;;;3.70;;
7941;SDS011;4016;50.758;7.150;2022-10-31T20:47:11;8.40;;;4.27;;
7941;SDS011;4016;50.758;7.150;2022-10-31T20:52:12;5.23;;;3.87;;
7941;SDS011;4016;50.758;7.150;2022-10-31T20:57:13;7.53;;;4.27;;
7941;SDS011;4016;50.758;7.150;2022-10-31T21:02:13;5.03;;;4.07;;
7941;SDS011;4016;50.758;7.150;2022-10-31T21:07:13;4.83;;;3.70;;
7941;SDS011;4016;50.758;7.150;2022-10-31T21:12:14;9.00;;;4.37;;
7941;SDS011;4016;50.758;7.150;2022-10-31T21:17:14;4.37;;;3.97;;
7941;SDS011;4016;50.758;7.150;2022-10-31T21:22:15;7.13;;;4.47;;
7941;SDS011;4016;50.758;7.150;2022-10-31T21:27:15;5.87;;;4.07;;
7941;SDS011;4016;50.758;7.150;2022-10-31T21:32:15;6.93;;;4.80;;
7941;SDS011;4016;50.758;7.150;2022-10-31T21:37:16;7.33;;;4.60;;
7941;SDS011;4016;50.758;7.150;2022-10-31T21:42:16;4.90;;;3.83;;
7941;SDS011;4016;50.758;7.150;2022-10-31T21:47:17;5.57;;;4.30;;
7941;SDS011;4016;50.758;7.150;2022-10-31T21:52:17;4.77;;;4.13;;
7941;SDS011;4016;50.758;7.150;2022-10-31T21:57:17;5.07;;;4.03;;
7941;SDS011;4016;50.758;7.150;2022-10-31T22:02:18;6.43;;;4.47;;
7941;SDS011;4016;50.758;7.150;2022-10-31T22:07:18;5.70;;;4.20;;
7941;SDS011;4016;50.758;7.150;2022-10-31T22:12:19;10.23;;;4.27;;
7941;SDS011;4016;50.758;7.150;2022-10-31T22:17:19;6.40;;;4.47;;
7941;SDS011;4016;50.758;7.150;2022-10-31T22:22:19;5.10;;;4.17;;
7941;SDS011;4016;50.758;7.150;2022-10-31T22:27:20;5.57;;;4.30;;
7941;SDS011;4016;50.758;7.150;2022-10-31T22:32:20;6.37;;;4.17;;
7941;SDS011;4016;50.758;7.150;2022-10-31T22:37:22;5.47;;;4.30;;
7941;SDS011;4016;50.758;7.150;2022-10-31T22:42:23;5.87;;;4.20;;
7941;SDS011;4016;50.758;7.150;2022-10-31T22:47:23;7.80;;;3.90;;
7941;SDS011;4016;50.758;7.150;2022-10-31T22:52:23;7.17;;;4.10;;
7941;SDS011;4016;50.758;7.150;2022-10-31T22:57:24;5.33;;;3.87;;
7941;SDS011;4016;50.758;7.150;2022-10-31T23:02:25;7.53;;;4.37;;
7941;SDS011;4016;50.758;7.150;2022-10-31T23:07:26;4.40;;;4.00;;
7941;SDS011;4016;50.758;7.150;2022-10-31T23:12:28;4.77;;;4.03;;
7941;SDS011;4016;50.758;7.150;2022-10-31T23:17:46;5.33;;;3.70;;
7941;SDS011;4016;50.758;7.150;2022-10-31T23:22:47;6.27;;;4.27;;
7941;SDS011;4016;50.758;7.150;2022-10-31T23:27:47;5.60;;;3.87;;
7941;SDS011;4016;50.758;7.150;2022-10-31T23:32:47;4.70;;;3.93;;
7941;SDS011;4016;50.758;7.150;2022-10-31T23:37:48;7.33;;;3.80;;
7941;SDS011;4016;50.758;7.150;2022-10-31T23:42:48;5.43;;;3.90;;
7941;SDS011;4016;50.758;7.150;2022-10-31T23:47:48;7.03;;;4.20;;
7941;SDS011;4016;50.758;7.150;2022-10-31T23:52:49;6.33;;;3.97;;
7941;SDS011;4016;50.758;7.150;2022-10-31T23:57:49;5.83;;;4.23;;
